sensor_id;sensor_type;location;lat;lon;timestamp;temperature;humidity
6118;DHT22;3089;48.202;11.510;2022-09-02T00:00:09;14.80;99.90
6118;DHT22;3089;48.202;11.510;2022-09-02T00:02:41;14.80;99.90
6118;DHT22;3089;48.202;11.510;2022-09-02T00:05:09;14.80;99.90
6118;DHT22;3089;48.202;11.510;2022-09-02T00:07:37;14.80;99.90
6118;DHT22;3089;48.202;11.510;2022-09-02T00:10:05;14.70;99.90
6118;DHT22;3089;48.202;11.510;2022-09-02T00:12:33;14.70;99.90
6118;DHT22;3089;48.202;11.510;2022-09-02T00:15:01;14.70;99.90
6118;DHT22;3089;48.202;11.510;2022-09-02T00:17:29;14.70;99.90
6118;DHT22;3089;48.202;11.510;2022-09-02T00:19:58;14.70;99.90
6118;DHT22;3089;48.202;11.510;2022-09-02T00:22:26;14.60;99.90
6118;DHT22;3089;48.202;11.510;2022-09-02T00:24:54;14.60;99.90
6118;DHT22;3089;48.202;11.510;2022-09-02T00:27:21;14.60;99.90
6118;DHT22;3089;48.202;11.510;2022-09-02T00:29:49;14.60;99.90
6118;DHT22;3089;48.202;11.510;2022-09-02T00:32:18;14.60;99.90
6118;DHT22;3089;48.202;11.510;2022-09-02T00:34:46;14.50;99.90
6118;DHT22;3089;48.202;11.510;2022-09-02T00:37:16;14.50;99.90
6118;DHT22;3089;48.202;11.510;2022-09-02T00:39:44;14.50;99.90
6118;DHT22;3089;48.202;11.510;2022-09-02T00:42:11;14.50;99.90
6118;DHT22;3089;48.202;11.510;2022-09-02T00:44:40;14.40;99.90
6118;DHT22;3089;48.202;11.510;2022-09-02T00:47:08;14.40;99.90
6118;DHT22;3089;48.202;11.510;2022-09-02T00:49:38;14.40;99.90
6118;DHT22;3089;48.202;11.510;2022-09-02T00:52:12;14.40;99.90
6118;DHT22;3089;48.202;11.510;2022-09-02T00:54:47;14.40;99.90
6118;DHT22;3089;48.202;11.510;2022-09-02T00:57:18;14.40;99.90
6118;DHT22;3089;48.202;11.510;2022-09-02T00:59:50;14.40;99.90
6118;DHT22;3089;48.202;11.510;2022-09-02T01:02:20;14.40;99.90
6118;DHT22;3089;48.202;11.510;2022-09-02T01:04:49;14.30;99.90
6118;DHT22;3089;48.202;11.510;2022-09-02T01:07:18;14.30;99.90
6118;DHT22;3089;48.202;11.510;2022-09-02T01:09:49;14.30;99.90
6118;DHT22;3089;48.202;11.510;2022-09-02T01:12:18;14.30;99.90
6118;DHT22;3089;48.202;11.510;2022-09-02T01:14:46;14.30;99.90
6118;DHT22;3089;48.202;11.510;2022-09-02T01:17:14;14.40;99.90
6118;DHT22;3089;48.202;11.510;2022-09-02T01:19:49;14.30;99.90
6118;DHT22;3089;48.202;11.510;2022-09-02T01:22:21;14.30;99.90
6118;DHT22;3089;48.202;11.510;2022-09-02T01:24:50;14.20;99.90
6118;DHT22;3089;48.202;11.510;2022-09-02T01:27:20;14.10;99.90
6118;DHT22;3089;48.202;11.510;2022-09-02T01:29:50;14.20;99.90
6118;DHT22;3089;48.202;11.510;2022-09-02T01:32:19;14.20;99.90
6118;DHT22;3089;48.202;11.510;2022-09-02T01:34:48;14.20;99.90
6118;DHT22;3089;48.202;11.510;2022-09-02T01:37:16;14.20;99.90
6118;DHT22;3089;48.202;11.510;2022-09-02T01:39:47;14.20;99.90
6118;DHT22;3089;48.202;11.510;2022-09-02T01:42:18;14.10;99.90
6118;DHT22;3089;48.202;11.510;2022-09-02T01:44:46;14.10;99.90
6118;DHT22;3089;48.202;11.510;2022-09-02T01:47:17;14.10;99.90
6118;DHT22;3089;48.202;11.510;2022-09-02T01:49:45;14.10;99.90
6118;DHT22;3089;48.202;11.510;2022-09-02T01:52:15;14.10;99.90
6118;DHT22;3089;48.202;11.510;2022-09-02T01:54:43;14.00;99.90
6118;DHT22;3089;48.202;11.510;2022-09-02T01:57:12;14.10;99.90
6118;DHT22;3089;48.202;11.510;2022-09-02T01:59:40;14.10;99.90
6118;DHT22;3089;48.202;11.510;2022-09-02T02:02:09;14.00;99.90
6118;DHT22;3089;48.202;11.510;2022-09-02T02:04:37;14.00;99.90
6118;DHT22;3089;48.202;11.510;2022-09-02T02:07:06;14.00;99.90
6118;DHT22;3089;48.202;11.510;2022-09-02T02:09:34;13.90;99.90
6118;DHT22;3089;48.202;11.510;2022-09-02T02:12:03;13.90;99.90
6118;DHT22;3089;48.202;11.510;2022-09-02T02:14:33;13.90;99.90
6118;DHT22;3089;48.202;11.510;2022-09-02T02:17:00;13.90;99.90
6118;DHT22;3089;48.202;11.510;2022-09-02T02:19:29;13.90;99.90
6118;DHT22;3089;48.202;11.510;2022-09-02T02:21:57;13.90;99.90
6118;DHT22;3089;48.202;11.510;2022-09-02T02:24:25;13.80;99.90
6118;DHT22;3089;48.202;11.510;2022-09-02T02:26:53;13.80;99.90
6118;DHT22;3089;48.202;11.510;2022-09-02T02:29:21;13.80;99.90
6118;DHT22;3089;48.202;11.510;2022-09-02T02:31:50;13.80;99.90
6118;DHT22;3089;48.202;11.510;2022-09-02T02:34:18;13.80;99.90
6118;DHT22;3089;48.202;11.510;2022-09-02T02:36:46;13.80;99.90
6118;DHT22;3089;48.202;11.510;2022-09-02T02:39:14;13.80;99.90
6118;DHT22;3089;48.202;11.510;2022-09-02T02:41:42;13.70;99.90
6118;DHT22;3089;48.202;11.510;2022-09-02T02:44:10;13.70;99.90
6118;DHT22;3089;48.202;11.510;2022-09-02T02:46:38;13.70;99.90
6118;DHT22;3089;48.202;11.510;2022-09-02T02:49:08;13.60;99.90
6118;DHT22;3089;48.202;11.510;2022-09-02T02:51:36;13.50;99.90
6118;DHT22;3089;48.202;11.510;2022-09-02T02:54:05;13.50;99.90
6118;DHT22;3089;48.202;11.510;2022-09-02T02:56:33;13.60;99.90
6118;DHT22;3089;48.202;11.510;2022-09-02T02:59:01;13.60;99.90
6118;DHT22;3089;48.202;11.510;2022-09-02T03:01:29;13.60;99.90
6118;DHT22;3089;48.202;11.510;2022-09-02T03:03:57;13.50;99.90
6118;DHT22;3089;48.202;11.510;2022-09-02T03:06:26;13.50;99.90
6118;DHT22;3089;48.202;11.510;2022-09-02T03:08:55;13.50;99.90
6118;DHT22;3089;48.202;11.510;2022-09-02T03:11:24;13.50;99.90
6118;DHT22;3089;48.202;11.510;2022-09-02T03:13:54;13.50;99.90
6118;DHT22;3089;48.202;11.510;2022-09-02T03:16:22;13.50;99.90
6118;DHT22;3089;48.202;11.510;2022-09-02T03:18:50;13.40;99.90
6118;DHT22;3089;48.202;11.510;2022-09-02T03:21:18;13.40;99.90
6118;DHT22;3089;48.202;11.510;2022-09-02T03:23:48;13.40;99.90
6118;DHT22;3089;48.202;11.510;2022-09-02T03:26:18;13.40;99.90
6118;DHT22;3089;48.202;11.510;2022-09-02T03:28:46;13.40;99.90
6118;DHT22;3089;48.202;11.510;2022-09-02T03:31:17;13.40;99.90
6118;DHT22;3089;48.202;11.510;2022-09-02T03:33:46;13.40;99.90
6118;DHT22;3089;48.202;11.510;2022-09-02T03:36:22;13.30;99.90
6118;DHT22;3089;48.202;11.510;2022-09-02T03:38:52;13.40;99.90
6118;DHT22;3089;48.202;11.510;2022-09-02T03:41:20;13.30;99.90
6118;DHT22;3089;48.202;11.510;2022-09-02T03:43:48;13.30;99.90
6118;DHT22;3089;48.202;11.510;2022-09-02T03:46:16;13.20;99.90
6118;DHT22;3089;48.202;11.510;2022-09-02T03:48:44;13.20;99.90
6118;DHT22;3089;48.202;11.510;2022-09-02T03:51:12;13.20;99.90
6118;DHT22;3089;48.202;11.510;2022-09-02T03:53:40;13.20;99.90
6118;DHT22;3089;48.202;11.510;2022-09-02T03:56:12;13.20;99.90
6118;DHT22;3089;48.202;11.510;2022-09-02T03:58:41;13.20;99.90
6118;DHT22;3089;48.202;11.510;2022-09-02T04:01:13;13.20;99.90
6118;DHT22;3089;48.202;11.510;2022-09-02T04:03:41;13.20;99.90
6118;DHT22;3089;48.202;11.510;2022-09-02T04:06:10;13.10;99.90
6118;DHT22;3089;48.202;11.510;2022-09-02T04:08:39;13.10;99.90
6118;DHT22;3089;48.202;11.510;2022-09-02T04:11:08;13.10;99.90
6118;DHT22;3089;48.202;11.510;2022-09-02T04:13:38;13.10;99.90
6118;DHT22;3089;48.202;11.510;2022-09-02T04:16:06;13.10;99.90
6118;DHT22;3089;48.202;11.510;2022-09-02T04:18:37;13.10;99.90
6118;DHT22;3089;48.202;11.510;2022-09-02T04:21:05;13.10;99.90
6118;DHT22;3089;48.202;11.510;2022-09-02T04:23:33;13.10;99.90
6118;DHT22;3089;48.202;11.510;2022-09-02T04:26:04;13.10;99.90
6118;DHT22;3089;48.202;11.510;2022-09-02T04:28:33;13.00;99.90
6118;DHT22;3089;48.202;11.510;2022-09-02T04:31:04;13.00;99.90
6118;DHT22;3089;48.202;11.510;2022-09-02T04:33:33;12.90;99.90
6118;DHT22;3089;48.202;11.510;2022-09-02T04:36:04;12.90;99.90
6118;DHT22;3089;48.202;11.510;2022-09-02T04:38:33;12.80;99.90
6118;DHT22;3089;48.202;11.510;2022-09-02T04:41:05;12.80;99.90
6118;DHT22;3089;48.202;11.510;2022-09-02T04:43:33;12.90;99.90
6118;DHT22;3089;48.202;11.510;2022-09-02T04:46:05;12.90;99.90
6118;DHT22;3089;48.202;11.510;2022-09-02T04:48:35;12.80;99.90
6118;DHT22;3089;48.202;11.510;2022-09-02T04:51:04;12.90;99.90
6118;DHT22;3089;48.202;11.510;2022-09-02T04:53:32;12.90;99.90
6118;DHT22;3089;48.202;11.510;2022-09-02T04:56:03;12.90;99.90
6118;DHT22;3089;48.202;11.510;2022-09-02T04:58:31;12.30;99.90
6118;DHT22;3089;48.202;11.510;2022-09-02T05:01:03;12.60;99.90
6118;DHT22;3089;48.202;11.510;2022-09-02T05:03:33;12.80;99.90
6118;DHT22;3089;48.202;11.510;2022-09-02T05:06:02;12.80;99.90
6118;DHT22;3089;48.202;11.510;2022-09-02T05:08:31;12.80;99.90
6118;DHT22;3089;48.202;11.510;2022-09-02T05:11:04;12.80;99.90
6118;DHT22;3089;48.202;11.510;2022-09-02T05:13:32;12.90;99.90
6118;DHT22;3089;48.202;11.510;2022-09-02T05:16:00;13.50;99.90
6118;DHT22;3089;48.202;11.510;2022-09-02T05:18:28;14.40;99.90
6118;DHT22;3089;48.202;11.510;2022-09-02T05:20:58;14.80;99.90
6118;DHT22;3089;48.202;11.510;2022-09-02T05:23:26;14.70;99.90
6118;DHT22;3089;48.202;11.510;2022-09-02T05:25:53;14.80;99.90
6118;DHT22;3089;48.202;11.510;2022-09-02T05:28:21;15.10;99.90
6118;DHT22;3089;48.202;11.510;2022-09-02T05:30:49;15.10;99.90
6118;DHT22;3089;48.202;11.510;2022-09-02T05:33:17;15.00;99.90
6118;DHT22;3089;48.202;11.510;2022-09-02T05:35:45;15.40;99.90
6118;DHT22;3089;48.202;11.510;2022-09-02T05:38:16;15.60;99.90
6118;DHT22;3089;48.202;11.510;2022-09-02T05:40:44;15.70;99.90
6118;DHT22;3089;48.202;11.510;2022-09-02T05:43:12;15.40;99.90
6118;DHT22;3089;48.202;11.510;2022-09-02T05:45:40;15.50;99.90
6118;DHT22;3089;48.202;11.510;2022-09-02T05:48:08;15.90;99.90
6118;DHT22;3089;48.202;11.510;2022-09-02T05:50:50;16.20;99.90
6118;DHT22;3089;48.202;11.510;2022-09-02T05:53:24;15.50;99.90
6118;DHT22;3089;48.202;11.510;2022-09-02T05:55:53;15.70;99.90
6118;DHT22;3089;48.202;11.510;2022-09-02T05:58:21;15.90;99.90
6118;DHT22;3089;48.202;11.510;2022-09-02T06:00:49;16.40;99.90
6118;DHT22;3089;48.202;11.510;2022-09-02T06:03:17;15.80;99.90
6118;DHT22;3089;48.202;11.510;2022-09-02T06:05:53;16.10;99.90
6118;DHT22;3089;48.202;11.510;2022-09-02T06:08:21;15.80;99.90
6118;DHT22;3089;48.202;11.510;2022-09-02T06:10:50;15.30;99.90
6118;DHT22;3089;48.202;11.510;2022-09-02T06:13:18;15.90;99.90
6118;DHT22;3089;48.202;11.510;2022-09-02T06:15:48;17.30;99.90
6118;DHT22;3089;48.202;11.510;2022-09-02T06:18:17;17.30;99.90
6118;DHT22;3089;48.202;11.510;2022-09-02T06:20:47;17.50;99.90
6118;DHT22;3089;48.202;11.510;2022-09-02T06:23:15;16.60;99.90
6118;DHT22;3089;48.202;11.510;2022-09-02T06:25:45;17.10;99.90
6118;DHT22;3089;48.202;11.510;2022-09-02T06:28:15;18.10;99.90
6118;DHT22;3089;48.202;11.510;2022-09-02T06:30:44;17.30;99.90
6118;DHT22;3089;48.202;11.510;2022-09-02T06:33:13;18.00;99.90
6118;DHT22;3089;48.202;11.510;2022-09-02T06:35:43;18.90;99.90
6118;DHT22;3089;48.202;11.510;2022-09-02T06:38:13;17.10;99.90
6118;DHT22;3089;48.202;11.510;2022-09-02T06:40:46;18.10;99.90
6118;DHT22;3089;48.202;11.510;2022-09-02T06:43:16;18.30;99.90
6118;DHT22;3089;48.202;11.510;2022-09-02T06:45:44;17.90;99.90
6118;DHT22;3089;48.202;11.510;2022-09-02T06:48:12;18.20;99.90
6118;DHT22;3089;48.202;11.510;2022-09-02T06:50:43;18.00;99.90
6118;DHT22;3089;48.202;11.510;2022-09-02T06:53:11;18.40;99.90
6118;DHT22;3089;48.202;11.510;2022-09-02T06:55:42;19.50;99.90
6118;DHT22;3089;48.202;11.510;2022-09-02T06:58:11;18.70;99.90
6118;DHT22;3089;48.202;11.510;2022-09-02T07:00:41;16.90;99.90
6118;DHT22;3089;48.202;11.510;2022-09-02T07:03:09;16.20;99.90
6118;DHT22;3089;48.202;11.510;2022-09-02T07:06:00;15.30;99.90
6118;DHT22;3089;48.202;11.510;2022-09-02T07:08:29;15.40;99.90
6118;DHT22;3089;48.202;11.510;2022-09-02T07:10:57;14.90;99.90
6118;DHT22;3089;48.202;11.510;2022-09-02T07:13:25;15.30;99.90
6118;DHT22;3089;48.202;11.510;2022-09-02T07:15:54;15.40;99.90
6118;DHT22;3089;48.202;11.510;2022-09-02T07:18:22;15.20;99.90
6118;DHT22;3089;48.202;11.510;2022-09-02T07:20:50;15.40;99.90
6118;DHT22;3089;48.202;11.510;2022-09-02T07:23:19;15.30;99.90
6118;DHT22;3089;48.202;11.510;2022-09-02T07:25:47;15.40;99.90
6118;DHT22;3089;48.202;11.510;2022-09-02T07:28:14;15.20;99.90
6118;DHT22;3089;48.202;11.510;2022-09-02T07:30:43;15.50;99.90
6118;DHT22;3089;48.202;11.510;2022-09-02T07:33:13;15.70;99.90
6118;DHT22;3089;48.202;11.510;2022-09-02T07:35:42;15.50;99.90
6118;DHT22;3089;48.202;11.510;2022-09-02T07:38:11;15.50;99.90
6118;DHT22;3089;48.202;11.510;2022-09-02T07:40:40;15.50;99.90
6118;DHT22;3089;48.202;11.510;2022-09-02T07:43:10;15.60;99.90
6118;DHT22;3089;48.202;11.510;2022-09-02T07:45:38;15.20;99.90
6118;DHT22;3089;48.202;11.510;2022-09-02T07:48:09;15.40;99.90
6118;DHT22;3089;48.202;11.510;2022-09-02T07:50:38;15.50;99.90
6118;DHT22;3089;48.202;11.510;2022-09-02T07:53:06;15.60;99.90
6118;DHT22;3089;48.202;11.510;2022-09-02T07:55:36;15.40;99.90
6118;DHT22;3089;48.202;11.510;2022-09-02T07:58:07;15.50;99.90
6118;DHT22;3089;48.202;11.510;2022-09-02T08:00:35;15.60;99.90
6118;DHT22;3089;48.202;11.510;2022-09-02T08:03:04;15.60;99.90
6118;DHT22;3089;48.202;11.510;2022-09-02T08:05:38;15.70;99.90
6118;DHT22;3089;48.202;11.510;2022-09-02T08:08:07;15.70;99.90
6118;DHT22;3089;48.202;11.510;2022-09-02T08:10:37;15.70;99.90
6118;DHT22;3089;48.202;11.510;2022-09-02T08:13:06;15.90;99.90
6118;DHT22;3089;48.202;11.510;2022-09-02T08:15:34;16.00;99.90
6118;DHT22;3089;48.202;11.510;2022-09-02T08:18:04;16.10;99.90
6118;DHT22;3089;48.202;11.510;2022-09-02T08:20:32;17.10;99.90
6118;DHT22;3089;48.202;11.510;2022-09-02T08:23:02;16.70;99.90
6118;DHT22;3089;48.202;11.510;2022-09-02T08:25:44;16.60;99.90
6118;DHT22;3089;48.202;11.510;2022-09-02T08:28:12;16.60;99.90
6118;DHT22;3089;48.202;11.510;2022-09-02T08:30:40;16.50;99.90
6118;DHT22;3089;48.202;11.510;2022-09-02T08:33:08;16.30;99.90
6118;DHT22;3089;48.202;11.510;2022-09-02T08:35:36;16.40;99.90
6118;DHT22;3089;48.202;11.510;2022-09-02T08:38:06;16.60;99.90
6118;DHT22;3089;48.202;11.510;2022-09-02T08:40:35;16.70;99.90
6118;DHT22;3089;48.202;11.510;2022-09-02T08:43:11;16.70;99.90
6118;DHT22;3089;48.202;11.510;2022-09-02T08:45:41;16.40;99.90
6118;DHT22;3089;48.202;11.510;2022-09-02T08:48:15;16.60;99.90
6118;DHT22;3089;48.202;11.510;2022-09-02T08:50:49;16.70;99.90
6118;DHT22;3089;48.202;11.510;2022-09-02T08:53:27;16.60;99.90
6118;DHT22;3089;48.202;11.510;2022-09-02T08:55:58;16.80;99.90
6118;DHT22;3089;48.202;11.510;2022-09-02T08:58:28;17.10;99.90
6118;DHT22;3089;48.202;11.510;2022-09-02T09:01:04;17.00;99.90
6118;DHT22;3089;48.202;11.510;2022-09-02T09:03:38;17.00;99.90
6118;DHT22;3089;48.202;11.510;2022-09-02T09:06:15;17.20;99.90
6118;DHT22;3089;48.202;11.510;2022-09-02T09:08:54;17.20;99.90
6118;DHT22;3089;48.202;11.510;2022-09-02T09:11:30;17.30;99.90
6118;DHT22;3089;48.202;11.510;2022-09-02T09:14:18;17.30;99.90
6118;DHT22;3089;48.202;11.510;2022-09-02T09:16:52;17.10;99.90
6118;DHT22;3089;48.202;11.510;2022-09-02T09:19:31;17.00;99.90
6118;DHT22;3089;48.202;11.510;2022-09-02T09:22:02;17.40;99.90
6118;DHT22;3089;48.202;11.510;2022-09-02T09:24:35;17.30;99.90
6118;DHT22;3089;48.202;11.510;2022-09-02T09:27:08;17.40;99.90
6118;DHT22;3089;48.202;11.510;2022-09-02T09:29:37;17.30;99.90
6118;DHT22;3089;48.202;11.510;2022-09-02T09:32:13;17.30;99.90
6118;DHT22;3089;48.202;11.510;2022-09-02T09:34:55;17.30;99.90
6118;DHT22;3089;48.202;11.510;2022-09-02T09:37:35;17.20;99.90
6118;DHT22;3089;48.202;11.510;2022-09-02T09:40:26;17.30;99.90
6118;DHT22;3089;48.202;11.510;2022-09-02T09:42:58;17.40;99.90
6118;DHT22;3089;48.202;11.510;2022-09-02T09:45:34;17.40;99.90
6118;DHT22;3089;48.202;11.510;2022-09-02T09:48:21;17.50;99.90
6118;DHT22;3089;48.202;11.510;2022-09-02T09:51:13;17.40;99.90
6118;DHT22;3089;48.202;11.510;2022-09-02T09:53:43;17.60;99.90
6118;DHT22;3089;48.202;11.510;2022-09-02T09:56:26;18.00;99.90
6118;DHT22;3089;48.202;11.510;2022-09-02T09:58:54;17.70;99.90
6118;DHT22;3089;48.202;11.510;2022-09-02T10:01:24;18.00;99.90
6118;DHT22;3089;48.202;11.510;2022-09-02T10:03:55;18.00;99.90
6118;DHT22;3089;48.202;11.510;2022-09-02T10:06:35;18.00;99.90
6118;DHT22;3089;48.202;11.510;2022-09-02T10:09:05;17.90;99.90
6118;DHT22;3089;48.202;11.510;2022-09-02T10:11:36;18.20;99.90
6118;DHT22;3089;48.202;11.510;2022-09-02T10:14:07;18.10;99.90
6118;DHT22;3089;48.202;11.510;2022-09-02T10:16:47;18.20;99.90
6118;DHT22;3089;48.202;11.510;2022-09-02T10:19:28;18.20;99.90
6118;DHT22;3089;48.202;11.510;2022-09-02T10:22:21;18.30;99.90
6118;DHT22;3089;48.202;11.510;2022-09-02T10:25:23;18.50;99.90
6118;DHT22;3089;48.202;11.510;2022-09-02T10:27:59;18.20;99.90
6118;DHT22;3089;48.202;11.510;2022-09-02T10:30:32;18.30;99.90
6118;DHT22;3089;48.202;11.510;2022-09-02T10:33:13;18.30;99.90
6118;DHT22;3089;48.202;11.510;2022-09-02T10:35:45;18.30;99.90
6118;DHT22;3089;48.202;11.510;2022-09-02T10:38:37;18.90;99.90
6118;DHT22;3089;48.202;11.510;2022-09-02T10:41:28;19.00;99.90
6118;DHT22;3089;48.202;11.510;2022-09-02T10:44:26;19.00;99.90
6118;DHT22;3089;48.202;11.510;2022-09-02T10:46:59;18.70;99.90
6118;DHT22;3089;48.202;11.510;2022-09-02T10:52:32;18.60;99.90
6118;DHT22;3089;48.202;11.510;2022-09-02T10:55:12;18.70;99.90
6118;DHT22;3089;48.202;11.510;2022-09-02T10:57:44;18.60;99.90
6118;DHT22;3089;48.202;11.510;2022-09-02T11:00:17;18.80;99.90
6118;DHT22;3089;48.202;11.510;2022-09-02T11:02:49;18.80;99.90
6118;DHT22;3089;48.202;11.510;2022-09-02T11:05:21;18.70;99.90
6118;DHT22;3089;48.202;11.510;2022-09-02T11:07:54;19.00;99.90
6118;DHT22;3089;48.202;11.510;2022-09-02T11:10:27;19.10;99.90
6118;DHT22;3089;48.202;11.510;2022-09-02T11:13:00;18.80;99.90
6118;DHT22;3089;48.202;11.510;2022-09-02T11:15:39;18.80;99.90
6118;DHT22;3089;48.202;11.510;2022-09-02T11:18:17;19.10;99.90
6118;DHT22;3089;48.202;11.510;2022-09-02T11:20:55;19.20;99.90
6118;DHT22;3089;48.202;11.510;2022-09-02T11:23:29;19.00;99.90
6118;DHT22;3089;48.202;11.510;2022-09-02T11:26:06;19.30;99.90
6118;DHT22;3089;48.202;11.510;2022-09-02T11:28:39;19.10;99.90
6118;DHT22;3089;48.202;11.510;2022-09-02T11:31:17;19.20;99.90
6118;DHT22;3089;48.202;11.510;2022-09-02T11:33:51;19.10;99.90
6118;DHT22;3089;48.202;11.510;2022-09-02T11:36:23;19.40;99.90
6118;DHT22;3089;48.202;11.510;2022-09-02T11:38:59;19.40;99.90
6118;DHT22;3089;48.202;11.510;2022-09-02T11:41:39;19.30;99.90
6118;DHT22;3089;48.202;11.510;2022-09-02T11:44:44;19.30;99.90
6118;DHT22;3089;48.202;11.510;2022-09-02T11:47:44;19.60;99.90
6118;DHT22;3089;48.202;11.510;2022-09-02T11:50:41;19.50;99.90
6118;DHT22;3089;48.202;11.510;2022-09-02T11:53:20;19.50;99.90
6118;DHT22;3089;48.202;11.510;2022-09-02T11:55:55;19.40;99.90
6118;DHT22;3089;48.202;11.510;2022-09-02T11:58:36;19.50;99.90
6118;DHT22;3089;48.202;11.510;2022-09-02T12:01:25;19.60;99.90
6118;DHT22;3089;48.202;11.510;2022-09-02T12:04:00;19.80;99.90
6118;DHT22;3089;48.202;11.510;2022-09-02T12:07:21;19.50;99.90
6118;DHT22;3089;48.202;11.510;2022-09-02T12:09:57;19.80;99.90
6118;DHT22;3089;48.202;11.510;2022-09-02T12:13:03;19.70;99.90
6118;DHT22;3089;48.202;11.510;2022-09-02T12:15:34;19.70;99.90
6118;DHT22;3089;48.202;11.510;2022-09-02T12:18:13;19.60;99.90
6118;DHT22;3089;48.202;11.510;2022-09-02T12:21:10;19.70;99.90
6118;DHT22;3089;48.202;11.510;2022-09-02T12:24:10;19.80;99.90
6118;DHT22;3089;48.202;11.510;2022-09-02T12:27:07;20.00;99.90
6118;DHT22;3089;48.202;11.510;2022-09-02T12:29:36;20.30;99.90
6118;DHT22;3089;48.202;11.510;2022-09-02T12:32:07;20.10;99.90
6118;DHT22;3089;48.202;11.510;2022-09-02T12:34:52;20.00;99.90
6118;DHT22;3089;48.202;11.510;2022-09-02T12:37:57;20.00;99.90
6118;DHT22;3089;48.202;11.510;2022-09-02T12:40:53;20.10;99.90
6118;DHT22;3089;48.202;11.510;2022-09-02T12:43:25;20.00;99.90
6118;DHT22;3089;48.202;11.510;2022-09-02T12:45:59;20.00;99.90
6118;DHT22;3089;48.202;11.510;2022-09-02T12:48:36;20.00;99.90
6118;DHT22;3089;48.202;11.510;2022-09-02T12:51:07;20.00;99.90
6118;DHT22;3089;48.202;11.510;2022-09-02T12:53:41;20.00;99.90
6118;DHT22;3089;48.202;11.510;2022-09-02T12:56:20;20.20;99.90
6118;DHT22;3089;48.202;11.510;2022-09-02T12:58:51;19.90;99.90
6118;DHT22;3089;48.202;11.510;2022-09-02T13:01:36;20.10;99.90
6118;DHT22;3089;48.202;11.510;2022-09-02T13:04:21;20.10;99.90
6118;DHT22;3089;48.202;11.510;2022-09-02T13:10:20;20.00;99.90
6118;DHT22;3089;48.202;11.510;2022-09-02T13:16:10;20.20;99.90
6118;DHT22;3089;48.202;11.510;2022-09-02T13:19:00;20.20;99.90
6118;DHT22;3089;48.202;11.510;2022-09-02T13:21:48;20.40;99.90
6118;DHT22;3089;48.202;11.510;2022-09-02T13:27:29;20.30;99.90
6118;DHT22;3089;48.202;11.510;2022-09-02T13:30:17;20.20;99.90
6118;DHT22;3089;48.202;11.510;2022-09-02T13:32:55;20.30;99.90
6118;DHT22;3089;48.202;11.510;2022-09-02T13:35:25;20.40;99.90
6118;DHT22;3089;48.202;11.510;2022-09-02T13:37:55;20.30;99.90
6118;DHT22;3089;48.202;11.510;2022-09-02T13:40:27;20.30;99.90
6118;DHT22;3089;48.202;11.510;2022-09-02T13:42:58;20.40;99.90
6118;DHT22;3089;48.202;11.510;2022-09-02T13:45:28;20.40;99.90
6118;DHT22;3089;48.202;11.510;2022-09-02T13:47:59;20.30;99.90
6118;DHT22;3089;48.202;11.510;2022-09-02T13:50:29;20.30;99.90
6118;DHT22;3089;48.202;11.510;2022-09-02T13:53:00;20.30;99.90
6118;DHT22;3089;48.202;11.510;2022-09-02T13:55:50;20.30;99.90
6118;DHT22;3089;48.202;11.510;2022-09-02T13:58:39;20.50;99.90
6118;DHT22;3089;48.202;11.510;2022-09-02T14:01:21;20.40;99.90
6118;DHT22;3089;48.202;11.510;2022-09-02T14:03:51;20.40;99.90
6118;DHT22;3089;48.202;11.510;2022-09-02T14:06:22;20.30;99.90
6118;DHT22;3089;48.202;11.510;2022-09-02T14:08:52;20.30;99.90
6118;DHT22;3089;48.202;11.510;2022-09-02T14:11:22;20.40;99.90
6118;DHT22;3089;48.202;11.510;2022-09-02T14:13:52;20.40;99.90
6118;DHT22;3089;48.202;11.510;2022-09-02T14:16:26;20.50;99.90
6118;DHT22;3089;48.202;11.510;2022-09-02T14:19:08;20.30;99.90
6118;DHT22;3089;48.202;11.510;2022-09-02T14:21:47;20.30;99.90
6118;DHT22;3089;48.202;11.510;2022-09-02T14:24:20;20.50;99.90
6118;DHT22;3089;48.202;11.510;2022-09-02T14:26:50;20.40;99.90
6118;DHT22;3089;48.202;11.510;2022-09-02T14:29:21;20.40;99.90
6118;DHT22;3089;48.202;11.510;2022-09-02T14:32:08;20.30;99.90
6118;DHT22;3089;48.202;11.510;2022-09-02T14:34:39;20.40;99.90
6118;DHT22;3089;48.202;11.510;2022-09-02T14:37:18;20.40;99.90
6118;DHT22;3089;48.202;11.510;2022-09-02T14:40:02;20.40;99.90
6118;DHT22;3089;48.202;11.510;2022-09-02T14:42:32;20.30;99.90
6118;DHT22;3089;48.202;11.510;2022-09-02T14:45:02;20.40;99.90
6118;DHT22;3089;48.202;11.510;2022-09-02T14:47:36;20.60;99.90
6118;DHT22;3089;48.202;11.510;2022-09-02T14:50:09;20.30;99.90
6118;DHT22;3089;48.202;11.510;2022-09-02T14:52:45;20.40;99.90
6118;DHT22;3089;48.202;11.510;2022-09-02T14:55:45;20.20;99.90
6118;DHT22;3089;48.202;11.510;2022-09-02T14:58:13;20.30;99.90
6118;DHT22;3089;48.202;11.510;2022-09-02T15:00:45;20.20;99.90
6118;DHT22;3089;48.202;11.510;2022-09-02T15:03:14;20.20;99.90
6118;DHT22;3089;48.202;11.510;2022-09-02T15:05:43;20.20;99.90
6118;DHT22;3089;48.202;11.510;2022-09-02T15:08:11;20.30;99.90
6118;DHT22;3089;48.202;11.510;2022-09-02T15:10:39;20.10;99.90
6118;DHT22;3089;48.202;11.510;2022-09-02T15:13:11;20.10;99.90
6118;DHT22;3089;48.202;11.510;2022-09-02T15:15:39;20.00;99.90
6118;DHT22;3089;48.202;11.510;2022-09-02T15:18:09;20.10;99.90
6118;DHT22;3089;48.202;11.510;2022-09-02T15:20:37;20.00;99.90
6118;DHT22;3089;48.202;11.510;2022-09-02T15:23:05;20.10;99.90
6118;DHT22;3089;48.202;11.510;2022-09-02T15:25:33;20.00;99.90
6118;DHT22;3089;48.202;11.510;2022-09-02T15:28:01;19.90;99.90
6118;DHT22;3089;48.202;11.510;2022-09-02T15:30:29;20.00;99.90
6118;DHT22;3089;48.202;11.510;2022-09-02T15:33:01;20.10;99.90
6118;DHT22;3089;48.202;11.510;2022-09-02T15:35:32;20.20;99.90
6118;DHT22;3089;48.202;11.510;2022-09-02T15:38:01;20.10;99.90
6118;DHT22;3089;48.202;11.510;2022-09-02T15:40:30;20.00;99.90
6118;DHT22;3089;48.202;11.510;2022-09-02T15:42:58;19.90;99.90
6118;DHT22;3089;48.202;11.510;2022-09-02T15:45:27;20.00;99.90
6118;DHT22;3089;48.202;11.510;2022-09-02T15:47:56;20.10;99.90
6118;DHT22;3089;48.202;11.510;2022-09-02T15:50:25;20.00;99.90
6118;DHT22;3089;48.202;11.510;2022-09-02T15:52:55;20.00;99.90
6118;DHT22;3089;48.202;11.510;2022-09-02T15:55:23;19.80;99.90
6118;DHT22;3089;48.202;11.510;2022-09-02T15:57:55;19.90;99.90
6118;DHT22;3089;48.202;11.510;2022-09-02T16:00:22;19.90;99.90
6118;DHT22;3089;48.202;11.510;2022-09-02T16:02:54;19.80;99.90
6118;DHT22;3089;48.202;11.510;2022-09-02T16:05:23;19.80;99.90
6118;DHT22;3089;48.202;11.510;2022-09-02T16:07:51;19.80;99.90
6118;DHT22;3089;48.202;11.510;2022-09-02T16:10:21;19.60;99.90
6118;DHT22;3089;48.202;11.510;2022-09-02T16:12:49;19.60;99.90
6118;DHT22;3089;48.202;11.510;2022-09-02T16:15:17;19.50;99.90
6118;DHT22;3089;48.202;11.510;2022-09-02T16:17:46;19.60;99.90
6118;DHT22;3089;48.202;11.510;2022-09-02T16:20:15;19.50;99.90
6118;DHT22;3089;48.202;11.510;2022-09-02T16:22:46;19.50;99.90
6118;DHT22;3089;48.202;11.510;2022-09-02T16:25:14;19.60;99.90
6118;DHT22;3089;48.202;11.510;2022-09-02T16:27:44;19.50;99.90
6118;DHT22;3089;48.202;11.510;2022-09-02T16:30:22;19.40;99.90